Time;durP1;ratioP1;P1;durP2;ratioP2;P2;SDS_P1;SDS_P2;PMS_P1;PMS_P2;Temp;Humidity;BMP_temperature;BMP_pressure;BME280_temperature;BME280_humidity;BME280_pressure;Samples;Min_cycle;Max_cycle;Signal;HPM_P1;HPM_P2
2022/10/26 00:02:19;;;;;;;23.88;11.70;;;;;;;;;;5151278;27;20057;-64
2022/10/26 00:04:45;;;;;;;25.52;11.90;;;;;;;;;;5151317;27;20038;-64
2022/10/26 00:07:11;;;;;;;21.23;11.80;;;;;;;;;;5132571;27;20069;-64
2022/10/26 00:09:37;;;;;;;21.88;11.70;;;;;;;;;;5150981;27;20054;-64
2022/10/26 00:12:03;;;;;;;25.85;12.85;;;;;;;;;;5151301;27;20102;-64
2022/10/26 00:14:29;;;;;;;20.83;11.73;;;;;;;;;;5151132;27;20115;-65
2022/10/26 00:16:55;;;;;;;25.13;12.63;;;;;;;;;;5132749;27;20057;-65
2022/10/26 00:19:22;;;;;;;22.83;12.50;;;;;;;;;;5151365;27;20153;-64
2022/10/26 00:21:48;;;;;;;22.40;12.68;;;;;;;;;;5151100;27;20057;-64
2022/10/26 00:24:14;;;;;;;19.90;12.50;;;;;;;;;;5150941;27;20518;-65
2022/10/26 00:26:40;;;;;;;;;;;;;;;;;;5152000;27;20045;-65
2022/10/26 00:29:06;;;;;;;24.67;13.52;;;;;;;;;;5151208;27;20010;-64
2022/10/26 00:31:32;;;;;;;;;;;;;;;;;;5151290;27;20054;-64
2022/10/26 00:33:58;;;;;;;25.15;13.75;;;;;;;;;;5151129;27;19919;-65
2022/10/26 00:36:25;;;;;;;25.08;13.32;;;;;;;;;;5150969;27;20530;-65
2022/10/26 00:38:51;;;;;;;;;;;;;;;;;;5154738;27;20062;-65
2022/10/26 00:41:24;;;;;;;24.92;12.93;;;;;;;;;;5155304;27;19995;-65
2022/10/26 00:43:50;;;;;;;20.02;13.68;;;;;;;;;;5155496;27;20133;-65
2022/10/26 00:46:19;;;;;;;24.70;14.40;;;;;;;;;;5155021;27;20058;-65
2022/10/26 00:48:49;;;;;;;22.77;13.70;;;;;;;;;;5155132;27;20105;-65
2022/10/26 00:51:18;;;;;;;23.85;13.30;;;;;;;;;;5155028;27;20047;-64
2022/10/26 00:53:44;;;;;;;22.63;13.63;;;;;;;;;;5155048;27;20046;-65
2022/10/26 00:56:10;;;;;;;24.65;14.52;;;;;;;;;;5154891;27;20344;-66
2022/10/26 00:58:37;;;;;;;28.80;13.93;;;;;;;;;;5154952;27;20126;-65
2022/10/26 01:01:03;;;;;;;;;;;;;;;;;;5155213;27;20083;-64
2022/10/26 01:03:30;;;;;;;22.00;13.82;;;;;;;;;;5136002;27;19950;-65
2022/10/26 01:05:57;;;;;;;28.30;13.75;;;;;;;;;;5154869;27;20154;-65
2022/10/26 01:08:23;;;;;;;25.63;15.00;;;;;;;;;;5154723;27;20123;-65
2022/10/26 01:10:49;;;;;;;;;;;;;;;;;;5154602;27;20354;-66
2022/10/26 01:13:16;;;;;;;26.23;14.23;;;;;;;;;;5154484;27;19919;-66
2022/10/26 01:15:45;;;;;;;24.02;14.02;;;;;;;;;;5154642;27;20131;-65
2022/10/26 01:18:15;;;;;;;25.92;13.80;;;;;;;;;;5154541;27;20053;-65
2022/10/26 01:20:44;;;;;;;24.90;14.63;;;;;;;;;;5154211;27;20054;-65
2022/10/26 01:23:15;;;;;;;24.85;14.18;;;;;;;;;;5154466;27;20082;-65
2022/10/26 01:25:47;;;;;;;26.40;13.85;;;;;;;;;;5154504;27;20046;-65
2022/10/26 01:28:27;;;;;;;28.83;15.00;;;;;;;;;;5154215;27;20054;-65
2022/10/26 01:30:56;;;;;;;26.85;14.88;;;;;;;;;;5134496;27;20126;-66
2022/10/26 01:33:29;;;;;;;25.35;14.05;;;;;;;;;;5135761;27;20151;-66
2022/10/26 01:35:58;;;;;;;25.65;14.05;;;;;;;;;;5154254;27;20189;-66
2022/10/26 01:38:27;;;;;;;25.85;14.20;;;;;;;;;;5154114;27;20529;-66
2022/10/26 01:40:59;;;;;;;24.65;13.73;;;;;;;;;;5153940;27;20046;-66
2022/10/26 01:43:28;;;;;;;23.50;14.77;;;;;;;;;;5154245;27;20144;-66
2022/10/26 01:45:54;;;;;;;25.38;14.80;;;;;;;;;;5153630;27;20438;-66
2022/10/26 01:48:23;;;;;;;22.13;13.45;;;;;;;;;;5153505;27;20046;-66
2022/10/26 01:50:51;;;;;;;25.08;14.00;;;;;;;;;;5153962;27;20095;-66
2022/10/26 01:53:18;;;;;;;22.17;13.25;;;;;;;;;;5153925;27;20046;-66
2022/10/26 01:55:44;;;;;;;24.58;14.40;;;;;;;;;;5153792;27;20166;-67
2022/10/26 01:58:29;;;;;;;22.98;13.35;;;;;;;;;;5153587;27;20062;-66
2022/10/26 02:01:14;;;;;;;25.50;14.30;;;;;;;;;;5153485;27;20046;-65
2022/10/26 02:03:45;;;;;;;26.52;14.13;;;;;;;;;;5153441;27;20504;-70
2022/10/26 02:06:31;;;;;;;29.27;14.45;;;;;;;;;;5153540;27;20449;-66
2022/10/26 02:09:02;;;;;;;25.95;14.65;;;;;;;;;;5123845;27;20055;-67
2022/10/26 02:11:36;;;;;;;25.63;13.18;;;;;;;;;;5134137;27;20165;-66
2022/10/26 02:14:08;;;;;;;22.15;13.65;;;;;;;;;;5153029;27;20474;-66
2022/10/26 02:16:42;;;;;;;25.05;13.95;;;;;;;;;;5153107;27;20057;-66
2022/10/26 02:19:14;;;;;;;24.27;14.18;;;;;;;;;;5153209;27;20069;-66
2022/10/26 02:21:43;;;;;;;23.85;14.48;;;;;;;;;;5153176;27;20050;-70
2022/10/26 02:24:11;;;;;;;25.83;14.38;;;;;;;;;;5153289;27;20087;-66
2022/10/26 02:26:40;;;;;;;23.02;13.70;;;;;;;;;;5153117;27;20430;-65
2022/10/26 02:29:08;;;;;;;24.70;15.02;;;;;;;;;;5152782;27;20062;-66
2022/10/26 02:31:35;;;;;;;25.83;14.95;;;;;;;;;;5152411;27;20055;-66
2022/10/26 02:34:03;;;;;;;21.92;13.70;;;;;;;;;;5152787;27;20077;-66
2022/10/26 02:36:32;;;;;;;25.98;15.65;;;;;;;;;;5152972;27;20068;-65
2022/10/26 02:38:59;;;;;;;25.17;15.35;;;;;;;;;;5152790;27;20174;-65
2022/10/26 02:41:26;;;;;;;25.52;14.88;;;;;;;;;;5152542;27;20043;-67
2022/10/26 02:43:55;;;;;;;24.85;15.25;;;;;;;;;;5152871;27;20462;-66
2022/10/26 02:46:22;;;;;;;23.67;14.73;;;;;;;;;;5152661;27;20155;-66
2022/10/26 02:48:48;;;;;;;27.15;15.82;;;;;;;;;;5152442;27;20043;-66
2022/10/26 02:51:20;;;;;;;26.23;15.48;;;;;;;;;;5152301;27;20047;-66
2022/10/26 02:53:51;;;;;;;24.45;15.48;;;;;;;;;;5152344;27;20122;-70
2022/10/26 02:56:19;;;;;;;26.88;15.68;;;;;;;;;;5152465;27;20431;-65
2022/10/26 02:58:49;;;;;;;22.98;15.27;;;;;;;;;;5152067;27;20150;-70
2022/10/26 03:01:15;;;;;;;27.75;16.08;;;;;;;;;;5151401;27;20043;-66
2022/10/26 03:03:41;;;;;;;26.02;16.08;;;;;;;;;;5152377;27;20043;-66
2022/10/26 03:06:07;;;;;;;26.48;15.73;;;;;;;;;;5152148;27;20089;-66
2022/10/26 03:08:33;;;;;;;27.45;15.85;;;;;;;;;;5152329;27;20051;-66
2022/10/26 03:10:59;;;;;;;24.50;15.65;;;;;;;;;;5133118;27;20041;-66
2022/10/26 03:13:25;;;;;;;27.45;14.95;;;;;;;;;;5152134;27;20047;-67
2022/10/26 03:15:55;;;;;;;24.55;15.32;;;;;;;;;;5133301;27;20042;-66
2022/10/26 03:18:21;;;;;;;24.27;15.50;;;;;;;;;;5151905;27;20072;-66
2022/10/26 03:20:47;;;;;;;26.40;16.70;;;;;;;;;;5151933;27;20106;-69
2022/10/26 03:23:13;;;;;;;25.42;15.32;;;;;;;;;;5151385;27;20127;-66
2022/10/26 03:25:39;;;;;;;27.10;15.55;;;;;;;;;;5151742;27;20042;-66
2022/10/26 03:28:06;;;;;;;27.30;15.95;;;;;;;;;;5151734;27;20043;-67
2022/10/26 03:30:32;;;;;;;27.05;17.30;;;;;;;;;;5132585;27;20043;-66
2022/10/26 03:32:58;;;;;;;;;;;;;;;;;;5152017;27;20110;-66
2022/10/26 03:35:24;;;;;;;25.65;17.08;;;;;;;;;;5132649;27;19987;-66
2022/10/26 03:37:50;;;;;;;26.40;16.00;;;;;;;;;;5151485;27;20049;-70
2022/10/26 03:40:16;;;;;;;29.20;17.33;;;;;;;;;;5151025;27;20053;-66
2022/10/26 03:42:42;;;;;;;29.02;17.38;;;;;;;;;;5151451;27;20362;-67
2022/10/26 03:45:09;;;;;;;32.97;18.02;;;;;;;;;;5151185;27;20076;-66
2022/10/26 03:47:35;;;;;;;;;;;;;;;;;;5151686;27;20082;-66
2022/10/26 03:50:01;;;;;;;30.92;18.80;;;;;;;;;;5151115;27;20018;-68
2022/10/26 03:52:27;;;;;;;28.65;19.02;;;;;;;;;;5132600;27;20478;-68
2022/10/26 03:54:53;;;;;;;30.83;19.52;;;;;;;;;;5151435;27;20462;-71
2022/10/26 03:57:19;;;;;;;27.25;18.27;;;;;;;;;;5151052;27;20389;-67
2022/10/26 03:59:48;;;;;;;31.10;19.70;;;;;;;;;;5151151;27;20445;-67
2022/10/26 04:02:14;;;;;;;32.38;20.70;;;;;;;;;;5151188;27;20414;-67
2022/10/26 04:04:40;;;;;;;32.83;20.55;;;;;;;;;;5151072;27;20053;-67
2022/10/26 04:07:06;;;;;;;31.48;19.95;;;;;;;;;;5151380;27;20046;-67
2022/10/26 04:09:32;;;;;;;30.63;20.60;;;;;;;;;;5151057;27;20054;-67
2022/10/26 04:11:58;;;;;;;34.55;21.52;;;;;;;;;;5150973;27;20415;-67
2022/10/26 04:14:24;;;;;;;35.13;21.65;;;;;;;;;;5151164;27;20057;-67
2022/10/26 04:16:50;;;;;;;35.05;21.33;;;;;;;;;;5151025;27;20192;-67
2022/10/26 04:19:16;;;;;;;32.60;22.50;;;;;;;;;;5132484;27;20093;-66
2022/10/26 04:21:42;;;;;;;34.38;21.70;;;;;;;;;;5151068;27;20047;-66
2022/10/26 04:24:10;;;;;;;35.40;21.85;;;;;;;;;;5151049;27;20431;-67
2022/10/26 04:26:36;;;;;;;30.45;20.83;;;;;;;;;;5151198;27;20079;-66
2022/10/26 04:29:05;;;;;;;30.45;20.63;;;;;;;;;;5132343;27;20462;-64
2022/10/26 04:31:32;;;;;;;32.95;20.67;;;;;;;;;;5151017;27;20367;-66
2022/10/26 04:33:58;;;;;;;33.75;23.23;;;;;;;;;;5151316;27;20078;-71
2022/10/26 04:36:24;;;;;;;32.05;21.42;;;;;;;;;;5151379;27;20202;-67
2022/10/26 04:38:52;;;;;;;34.60;21.73;;;;;;;;;;5151130;27;20046;-66
2022/10/26 04:41:18;;;;;;;35.63;21.90;;;;;;;;;;5151074;27;20077;-67
2022/10/26 04:43:45;;;;;;;38.55;23.10;;;;;;;;;;5151142;27;20126;-68
2022/10/26 04:46:12;;;;;;;34.42;21.55;;;;;;;;;;5151195;27;20038;-70
2022/10/26 04:48:39;;;;;;;34.80;22.10;;;;;;;;;;5151764;27;20397;-68
2022/10/26 04:51:05;;;;;;;35.42;23.08;;;;;;;;;;5150831;27;20105;-68
2022/10/26 04:53:32;;;;;;;33.75;22.73;;;;;;;;;;5131884;27;20497;-67
2022/10/26 04:55:59;;;;;;;35.30;22.58;;;;;;;;;;5150652;27;20067;-73
2022/10/26 04:58:25;;;;;;;36.83;22.35;;;;;;;;;;5115240;27;20117;-68
2022/10/26 05:00:54;;;;;;;;;;;;;;;;;;5151148;27;20164;-67
2022/10/26 05:03:20;;;;;;;34.75;21.83;;;;;;;;;;5150790;27;19915;-68
2022/10/26 05:05:47;;;;;;;35.22;22.73;;;;;;;;;;5151124;27;20145;-68
2022/10/26 05:08:13;;;;;;;35.95;23.65;;;;;;;;;;5150555;27;20471;-67
2022/10/26 05:10:39;;;;;;;;;;;;;;;;;;5132564;27;20120;-67
2022/10/26 05:13:05;;;;;;;37.92;23.00;;;;;;;;;;5150215;27;19919;-66
2022/10/26 05:15:31;;;;;;;34.67;22.00;;;;;;;;;;5150700;27;20195;-67
2022/10/26 05:17:58;;;;;;;30.00;21.67;;;;;;;;;;5150404;27;20050;-67
2022/10/26 05:20:28;;;;;;;35.97;25.05;;;;;;;;;;5131565;27;20053;-67
2022/10/26 05:22:55;;;;;;;38.22;23.92;;;;;;;;;;5150559;27;20221;-67
2022/10/26 05:25:21;;;;;;;34.65;23.95;;;;;;;;;;5154271;27;20051;-67
2022/10/26 05:27:47;;;;;;;36.88;23.40;;;;;;;;;;5154017;27;20051;-67
2022/10/26 05:30:14;;;;;;;35.72;23.40;;;;;;;;;;5154089;27;20447;-67
2022/10/26 05:32:40;;;;;;;36.75;23.40;;;;;;;;;;5154111;27;20074;-67
2022/10/26 05:35:06;;;;;;;33.38;22.30;;;;;;;;;;5153857;27;20054;-68
2022/10/26 05:37:32;;;;;;;39.83;23.67;;;;;;;;;;5153992;27;20073;-67
2022/10/26 05:39:58;;;;;;;35.95;22.35;;;;;;;;;;5153910;27;20046;-67
2022/10/26 05:42:24;;;;;;;37.05;23.10;;;;;;;;;;5135421;27;20086;-68
2022/10/26 05:44:50;;;;;;;37.47;23.50;;;;;;;;;;5135335;27;20122;-68
2022/10/26 05:47:16;;;;;;;36.40;23.83;;;;;;;;;;5153645;27;20065;-66
2022/10/26 05:49:42;;;;;;;36.90;22.25;;;;;;;;;;5153673;27;20038;-66
2022/10/26 05:52:08;;;;;;;33.90;21.92;;;;;;;;;;5153935;27;20205;-67
2022/10/26 05:54:34;;;;;;;31.90;21.23;;;;;;;;;;5135157;27;20034;-66
2022/10/26 05:57:00;;;;;;;33.78;22.27;;;;;;;;;;5154389;27;20126;-70
2022/10/26 05:59:27;;;;;;;32.42;22.15;;;;;;;;;;5153785;27;20042;-66
2022/10/26 06:01:53;;;;;;;40.05;21.88;;;;;;;;;;5153488;27;20110;-65
2022/10/26 06:04:28;;;;;;;29.52;20.75;;;;;;;;;;5153823;27;20061;-66
2022/10/26 06:06:54;;;;;;;32.90;21.27;;;;;;;;;;5153285;27;20080;-66
2022/10/26 06:09:20;;;;;;;35.28;21.60;;;;;;;;;;5134934;27;20098;-69
2022/10/26 06:11:47;;;;;;;29.63;20.80;;;;;;;;;;5153268;27;20462;-68
2022/10/26 06:14:13;;;;;;;35.20;22.20;;;;;;;;;;5153170;27;20050;-67
2022/10/26 06:17:06;;;;;;;34.13;22.55;;;;;;;;;;5153271;27;20039;-65
2022/10/26 06:19:50;;;;;;;31.42;22.00;;;;;;;;;;5153076;27;20149;-65
2022/10/26 06:22:20;;;;;;;33.30;21.98;;;;;;;;;;5153110;27;20079;-66
2022/10/26 06:24:52;;;;;;;34.88;22.58;;;;;;;;;;5153030;27;20106;-67
2022/10/26 06:27:18;;;;;;;36.42;23.85;;;;;;;;;;5152640;27;20134;-66
2022/10/26 06:29:49;;;;;;;33.70;22.23;;;;;;;;;;5134413;27;20070;-64
2022/10/26 06:32:15;;;;;;;35.35;22.67;;;;;;;;;;5153037;27;20126;-63
2022/10/26 06:34:41;;;;;;;;;;;;;;;;;;5153514;27;20062;-61
2022/10/26 06:37:07;;;;;;;33.85;21.67;;;;;;;;;;5152858;27;19915;-61
2022/10/26 06:39:36;;;;;;;37.17;23.10;;;;;;;;;;5152932;27;20114;-64
2022/10/26 06:42:02;;;;;;;35.95;23.02;;;;;;;;;;5152827;27;20050;-64
2022/10/26 06:44:28;;;;;;;32.60;20.83;;;;;;;;;;5152798;27;20043;-64
2022/10/26 06:47:09;;;;;;;30.25;20.98;;;;;;;;;;5152385;27;20439;-64
2022/10/26 06:49:50;;;;;;;36.05;21.40;;;;;;;;;;5152526;27;20043;-63
2022/10/26 06:52:31;;;;;;;28.63;19.90;;;;;;;;;;5152699;27;20043;-66
2022/10/26 06:54:58;;;;;;;34.53;20.25;;;;;;;;;;5152546;27;20045;-65
2022/10/26 06:57:29;;;;;;;30.42;19.70;;;;;;;;;;5152282;27;20079;-64
2022/10/26 06:59:59;;;;;;;33.42;21.02;;;;;;;;;;5133564;27;20051;-64
2022/10/26 07:02:25;;;;;;;31.50;20.70;;;;;;;;;;5152551;27;20047;-64
2022/10/26 07:04:52;;;;;;;33.30;18.88;;;;;;;;;;5152331;27;20047;-64
2022/10/26 07:07:19;;;;;;;31.13;19.42;;;;;;;;;;5152213;27;20109;-65
2022/10/26 07:09:45;;;;;;;28.10;18.35;;;;;;;;;;5152488;27;20065;-63
2022/10/26 07:12:11;;;;;;;26.92;18.27;;;;;;;;;;5133243;27;20102;-64
2022/10/26 07:14:38;;;;;;;30.60;18.77;;;;;;;;;;5152019;27;20046;-64
2022/10/26 07:17:04;;;;;;;30.67;19.35;;;;;;;;;;5152161;27;20058;-64
2022/10/26 07:19:30;;;;;;;29.13;17.60;;;;;;;;;;5133204;27;20043;-64
2022/10/26 07:21:58;;;;;;;28.10;17.70;;;;;;;;;;5152176;27;20042;-63
2022/10/26 07:24:24;;;;;;;26.73;17.52;;;;;;;;;;5151673;27;20508;-63
2022/10/26 07:26:50;;;;;;;26.60;17.15;;;;;;;;;;5152080;27;20114;-64
2022/10/26 07:29:17;;;;;;;27.48;16.92;;;;;;;;;;5152057;27;20050;-71
2022/10/26 07:31:43;;;;;;;;;;;;;;;;;;5152506;27;20506;-63
2022/10/26 07:34:23;;;;;;;32.40;16.83;;;;;;;;;;5106582;27;20817;-63
2022/10/26 07:36:50;;;;;;;30.10;17.17;;;;;;;;;;5106768;28;20090;-63
2022/10/26 07:39:16;;;;;;;27.30;16.27;;;;;;;;;;5101346;28;20555;-64
2022/10/26 07:41:42;;;;;;;24.63;15.43;;;;;;;;;;5085631;28;20055;-64
2022/10/26 07:44:08;;;;;;;26.67;16.10;;;;;;;;;;5100652;28;20044;-63
2022/10/26 07:46:34;;;;;;;22.35;14.65;;;;;;;;;;5095442;28;20052;-63
2022/10/26 07:49:00;;;;;;;27.73;15.23;;;;;;;;;;5101828;28;20105;-63
2022/10/26 07:51:26;;;;;;;24.15;15.20;;;;;;;;;;5104464;28;20047;-64
2022/10/26 07:53:52;;;;;;;26.17;15.77;;;;;;;;;;5104110;28;20099;-64
2022/10/26 07:56:18;;;;;;;25.30;15.32;;;;;;;;;;5102480;28;20424;-64
2022/10/26 07:58:44;;;;;;;25.05;14.10;;;;;;;;;;5088659;28;20083;-64
2022/10/26 08:01:15;;;;;;;25.35;13.95;;;;;;;;;;5096027;28;20492;-63
2022/10/26 08:03:41;;;;;;;29.25;14.82;;;;;;;;;;5089888;28;20044;-63
2022/10/26 08:06:08;;;;;;;25.85;15.00;;;;;;;;;;5085154;28;20047;-63
2022/10/26 08:08:34;;;;;;;24.42;14.13;;;;;;;;;;5103122;28;20052;-64
2022/10/26 08:11:00;;;;;;;23.70;14.05;;;;;;;;;;5089896;28;20055;-63
2022/10/26 08:13:26;;;;;;;26.70;14.60;;;;;;;;;;5101517;28;20043;-64
2022/10/26 08:15:56;;;;;;;22.40;13.45;;;;;;;;;;5092367;28;20048;-64
2022/10/26 08:18:23;;;;;;;23.80;13.98;;;;;;;;;;5094431;28;20050;-66
2022/10/26 08:20:49;;;;;;;29.50;14.15;;;;;;;;;;5093273;28;20040;-64
2022/10/26 08:23:15;;;;;;;24.35;13.43;;;;;;;;;;5094296;28;20051;-64
2022/10/26 08:25:41;;;;;;;22.48;13.00;;;;;;;;;;5101917;28;20393;-64
2022/10/26 08:28:07;;;;;;;23.90;12.02;;;;;;;;;;5101231;28;20067;-64
2022/10/26 08:30:33;;;;;;;25.27;12.10;;;;;;;;;;5084465;28;20047;-64
2022/10/26 08:33:00;;;;;;;20.77;12.38;;;;;;;;;;5084518;28;20356;-65
2022/10/26 08:35:27;;;;;;;22.95;12.85;;;;;;;;;;5090956;28;20063;-64
2022/10/26 08:37:53;;;;;;;;;;;;;;;;;;5094591;28;20044;-64
2022/10/26 08:40:21;;;;;;;24.17;12.38;;;;;;;;;;5098572;28;19986;-64
2022/10/26 08:42:50;;;;;;;19.38;11.38;;;;;;;;;;5096773;28;20086;-64
2022/10/26 08:45:30;;;;;;;20.48;12.00;;;;;;;;;;5083018;28;20428;-64
2022/10/26 08:47:59;;;;;;;21.13;11.57;;;;;;;;;;5075717;28;20172;-64
2022/10/26 08:50:27;;;;;;;22.08;11.05;;;;;;;;;;5079978;28;20131;-63
2022/10/26 08:53:01;;;;;;;19.73;10.35;;;;;;;;;;5084264;28;20048;-62
2022/10/26 08:55:31;;;;;;;24.52;11.02;;;;;;;;;;5091544;28;20493;-68
2022/10/26 08:57:59;;;;;;;19.33;9.90;;;;;;;;;;5072242;28;20109;-63
2022/10/26 09:00:25;;;;;;;20.85;10.65;;;;;;;;;;5075336;28;20051;-64
2022/10/26 09:02:53;;;;;;;22.40;10.30;;;;;;;;;;5079110;28;20070;-63
2022/10/26 09:05:22;;;;;;;19.50;9.25;;;;;;;;;;5091273;28;20572;-63
2022/10/26 09:07:55;;;;;;;16.02;8.50;;;;;;;;;;5076090;28;20471;-62
2022/10/26 09:10:23;;;;;;;18.55;8.45;;;;;;;;;;5071543;28;20075;-62
2022/10/26 09:12:58;;;;;;;17.13;7.93;;;;;;;;;;5077947;28;20203;-63
2022/10/26 09:15:24;;;;;;;14.73;7.53;;;;;;;;;;5077892;28;20044;-62
2022/10/26 09:18:02;;;;;;;22.10;9.00;;;;;;;;;;5070279;28;20088;-62
2022/10/26 09:20:49;;;;;;;17.02;7.40;;;;;;;;;;5085760;28;20051;-62
2022/10/26 09:23:18;;;;;;;17.50;7.45;;;;;;;;;;5087498;28;20132;-62
2022/10/26 09:25:48;;;;;;;14.30;6.97;;;;;;;;;;5073676;28;20329;-64
2022/10/26 09:28:16;;;;;;;15.07;6.97;;;;;;;;;;5080194;28;20126;-62
2022/10/26 09:30:46;;;;;;;16.90;7.05;;;;;;;;;;5075536;28;20090;-63
2022/10/26 09:33:15;;;;;;;22.67;7.18;;;;;;;;;;5071583;28;20052;-61
2022/10/26 09:35:48;;;;;;;15.05;6.45;;;;;;;;;;5080884;28;20139;-65
2022/10/26 09:38:18;;;;;;;15.15;6.18;;;;;;;;;;5069868;28;20412;-62
2022/10/26 09:40:53;;;;;;;17.05;6.47;;;;;;;;;;5073902;28;20326;-65
2022/10/26 09:43:28;;;;;;;12.15;5.72;;;;;;;;;;5076805;28;20398;-63
2022/10/26 09:45:54;;;;;;;13.60;6.10;;;;;;;;;;5074983;28;20845;-66
2022/10/26 09:48:38;;;;;;;14.70;6.10;;;;;;;;;;5072667;28;20480;-63
2022/10/26 09:51:04;;;;;;;15.95;6.18;;;;;;;;;;5074886;28;20045;-62
2022/10/26 09:53:31;;;;;;;13.23;5.75;;;;;;;;;;5082793;28;20405;-63
2022/10/26 09:56:05;;;;;;;12.50;5.40;;;;;;;;;;5082671;28;20377;-62
2022/10/26 09:58:36;;;;;;;13.15;5.30;;;;;;;;;;5084868;28;20061;-63
2022/10/26 10:01:02;;;;;;;11.45;5.20;;;;;;;;;;5088106;28;20040;-63
2022/10/26 10:03:30;;;;;;;13.23;5.45;;;;;;;;;;5087074;28;20050;-63
2022/10/26 10:06:24;;;;;;;12.68;5.20;;;;;;;;;;5102250;28;20047;-64
2022/10/26 10:09:09;;;;;;;13.38;5.20;;;;;;;;;;5079426;28;20387;-63
2022/10/26 10:11:39;;;;;;;13.77;4.85;;;;;;;;;;5077258;28;20094;-66
2022/10/26 10:14:13;;;;;;;12.05;5.03;;;;;;;;;;5101299;28;20123;-64
2022/10/26 10:16:40;;;;;;;13.07;4.97;;;;;;;;;;5096588;28;20165;-64
2022/10/26 10:19:06;;;;;;;;;;;;;;;;;;5110451;28;20075;-63
2022/10/26 10:21:44;;;;;;;14.63;5.10;;;;;;;;;;5085336;28;20371;-65
2022/10/26 10:24:25;;;;;;;13.15;5.20;;;;;;;;;;5078139;28;20040;-62
2022/10/26 10:27:11;;;;;;;16.38;5.68;;;;;;;;;;5087800;28;20193;-64
2022/10/26 10:29:41;;;;;;;13.57;4.80;;;;;;;;;;5101666;28;20158;-64
2022/10/26 10:32:13;;;;;;;14.32;5.38;;;;;;;;;;5088875;28;20214;-65
2022/10/26 10:34:39;;;;;;;17.13;5.60;;;;;;;;;;5089242;28;20052;-72
2022/10/26 10:37:05;;;;;;;13.98;5.97;;;;;;;;;;5087234;28;20039;-64
2022/10/26 10:39:42;;;;;;;16.08;5.82;;;;;;;;;;5077854;28;20036;-65
2022/10/26 10:42:16;;;;;;;12.43;5.90;;;;;;;;;;5079960;28;20110;-65
2022/10/26 10:44:43;;;;;;;14.57;5.57;;;;;;;;;;5081552;28;20051;-67
2022/10/26 10:47:08;;;;;;;;;;;;;;;;;;5078046;28;20152;-65
2022/10/26 10:49:41;;;;;;;17.80;5.10;;;;;;;;;;5084708;28;19961;-66
2022/10/26 10:52:07;;;;;;;12.88;5.50;;;;;;;;;;5089514;28;20048;-66
2022/10/26 10:54:34;;;;;;;14.10;5.13;;;;;;;;;;5089790;28;20131;-65
2022/10/26 10:57:12;;;;;;;12.23;4.82;;;;;;;;;;5089117;28;20143;-67
2022/10/26 10:59:43;;;;;;;15.05;5.07;;;;;;;;;;5079138;28;20048;-66
2022/10/26 11:02:17;;;;;;;12.48;5.43;;;;;;;;;;5085441;28;20182;-66
2022/10/26 11:04:43;;;;;;;14.73;5.28;;;;;;;;;;5068690;28;20436;-65
2022/10/26 11:07:11;;;;;;;14.27;5.47;;;;;;;;;;5068717;28;20049;-64
2022/10/26 11:09:38;;;;;;;14.18;5.25;;;;;;;;;;5069052;28;20040;-67
2022/10/26 11:12:31;;;;;;;12.77;5.03;;;;;;;;;;5086809;28;20471;-65
2022/10/26 11:15:04;;;;;;;13.55;5.55;;;;;;;;;;5087482;28;20052;-65
2022/10/26 11:17:33;;;;;;;14.38;5.32;;;;;;;;;;5080284;28;20396;-65
2022/10/26 11:20:01;;;;;;;13.95;4.88;;;;;;;;;;5067028;28;20050;-67
2022/10/26 11:22:29;;;;;;;11.00;4.88;;;;;;;;;;5068766;28;20169;-65
2022/10/26 11:25:01;;;;;;;15.40;5.07;;;;;;;;;;5079731;28;20055;-65
2022/10/26 11:27:34;;;;;;;14.10;4.93;;;;;;;;;;5089040;28;20394;-64
2022/10/26 11:30:02;;;;;;;14.70;5.15;;;;;;;;;;5087212;28;20472;-66
2022/10/26 11:32:49;;;;;;;13.98;5.25;;;;;;;;;;5088715;28;20139;-66
2022/10/26 11:35:30;;;;;;;14.07;4.50;;;;;;;;;;5085983;28;20162;-66
2022/10/26 11:38:12;;;;;;;14.85;5.57;;;;;;;;;;5086911;28;20505;-65
2022/10/26 11:40:47;;;;;;;13.43;4.72;;;;;;;;;;5087925;28;20105;-65
2022/10/26 11:43:33;;;;;;;11.30;4.93;;;;;;;;;;5088799;28;20047;-64
2022/10/26 11:45:59;;;;;;;15.15;5.35;;;;;;;;;;5072995;28;20070;-64
2022/10/26 11:48:30;;;;;;;14.63;5.50;;;;;;;;;;5068520;28;20495;-65
2022/10/26 11:50:57;;;;;;;13.07;5.47;;;;;;;;;;5068280;28;20149;-64
2022/10/26 11:53:25;;;;;;;11.73;5.07;;;;;;;;;;5067456;28;20084;-65
2022/10/26 11:55:55;;;;;;;13.52;5.53;;;;;;;;;;5068052;28;20052;-66
2022/10/26 11:58:23;;;;;;;14.18;5.10;;;;;;;;;;5068728;28;20045;-65
2022/10/26 12:01:00;;;;;;;12.23;5.07;;;;;;;;;;5068722;28;20165;-66
2022/10/26 12:03:31;;;;;;;14.55;5.15;;;;;;;;;;5068434;28;20139;-65
2022/10/26 12:05:58;;;;;;;13.50;4.50;;;;;;;;;;5065949;28;20044;-65
2022/10/26 12:08:27;;;;;;;10.85;4.25;;;;;;;;;;5068605;28;20063;-64
2022/10/26 12:11:06;;;;;;;15.68;4.43;;;;;;;;;;5068188;28;20542;-66
2022/10/26 12:13:32;;;;;;;11.18;4.38;;;;;;;;;;5068626;28;20114;-63
2022/10/26 12:16:02;;;;;;;13.73;4.50;;;;;;;;;;5067072;28;20152;-67
2022/10/26 12:18:34;;;;;;;14.80;4.55;;;;;;;;;;5068269;28;20045;-65
2022/10/26 12:21:02;;;;;;;13.05;4.63;;;;;;;;;;5071368;28;20487;-64
2022/10/26 12:23:29;;;;;;;12.88;4.28;;;;;;;;;;5072403;28;20036;-65
2022/10/26 12:26:14;;;;;;;12.32;4.50;;;;;;;;;;5071611;28;20060;-66
2022/10/26 12:28:41;;;;;;;13.40;4.65;;;;;;;;;;5071636;28;20040;-64
2022/10/26 12:31:25;;;;;;;18.05;4.63;;;;;;;;;;5087116;28;20123;-64
2022/10/26 12:33:52;;;;;;;14.05;4.60;;;;;;;;;;5091487;28;20445;-65
2022/10/26 12:36:36;;;;;;;14.15;5.03;;;;;;;;;;5091543;28;20390;-63
2022/10/26 12:39:02;;;;;;;16.52;4.70;;;;;;;;;;5091525;28;20066;-62
2022/10/26 12:41:29;;;;;;;15.68;4.35;;;;;;;;;;5073554;28;20128;-61
2022/10/26 12:43:56;;;;;;;11.73;4.82;;;;;;;;;;5070004;28;20146;-64
2022/10/26 12:46:22;;;;;;;18.45;5.38;;;;;;;;;;5071421;28;20044;-63
2022/10/26 12:48:52;;;;;;;13.23;5.45;;;;;;;;;;5071357;28;20396;-63
2022/10/26 12:51:24;;;;;;;14.85;5.30;;;;;;;;;;5072121;28;20216;-68
2022/10/26 12:53:59;;;;;;;15.90;5.10;;;;;;;;;;5071438;28;20438;-68
2022/10/26 12:56:45;;;;;;;13.57;5.47;;;;;;;;;;5071453;28;20110;-69
2022/10/26 12:59:50;;;;;;;14.23;6.13;;;;;;;;;;5066502;28;20091;-65
2022/10/26 13:02:32;;;;;;;13.18;5.65;;;;;;;;;;5060934;28;20509;-65
2022/10/26 13:05:07;;;;;;;14.32;5.50;;;;;;;;;;5068158;28;20070;-68
2022/10/26 13:07:35;;;;;;;13.80;5.55;;;;;;;;;;5069762;28;20117;-65
2022/10/26 13:10:13;;;;;;;14.32;5.78;;;;;;;;;;5070384;28;20048;-68
2022/10/26 13:12:42;;;;;;;16.90;5.80;;;;;;;;;;5073005;28;20330;-66
2022/10/26 13:15:20;;;;;;;14.20;5.70;;;;;;;;;;5070371;28;20040;-69
2022/10/26 13:18:02;;;;;;;16.58;6.10;;;;;;;;;;5070945;28;20040;-68
2022/10/26 13:20:29;;;;;;;15.45;5.55;;;;;;;;;;5071060;28;20153;-69
2022/10/26 13:22:56;;;;;;;15.95;5.45;;;;;;;;;;5070703;28;20387;-68
2022/10/26 13:25:22;;;;;;;;;;;;;;;;;;5071077;28;20133;-65
2022/10/26 13:27:57;;;;;;;15.30;5.75;;;;;;;;;;5070739;28;20015;-66
2022/10/26 13:30:40;;;;;;;18.63;5.77;;;;;;;;;;5070184;28;20480;-66
2022/10/26 13:33:10;;;;;;;16.88;6.03;;;;;;;;;;5073795;28;20048;-66
2022/10/26 13:35:39;;;;;;;16.73;6.00;;;;;;;;;;5090652;28;20192;-68
2022/10/26 13:38:08;;;;;;;21.27;7.68;;;;;;;;;;5090643;28;20093;-63
2022/10/26 13:40:36;;;;;;;19.63;7.30;;;;;;;;;;5090699;28;20062;-63
2022/10/26 13:43:03;;;;;;;18.50;7.78;;;;;;;;;;5088302;28;20064;-65
2022/10/26 13:45:31;;;;;;;18.42;8.13;;;;;;;;;;5072593;28;20127;-64
2022/10/26 13:48:00;;;;;;;18.60;7.75;;;;;;;;;;5070886;28;20120;-65
2022/10/26 13:50:28;;;;;;;16.90;8.27;;;;;;;;;;5070421;28;20078;-64
2022/10/26 13:52:56;;;;;;;24.20;8.98;;;;;;;;;;5070239;28;20040;-64
2022/10/26 13:55:22;;;;;;;17.50;8.50;;;;;;;;;;5069158;28;20048;-63
2022/10/26 13:58:00;;;;;;;18.95;8.45;;;;;;;;;;5070272;28;20511;-64
2022/10/26 14:00:27;;;;;;;20.27;9.35;;;;;;;;;;5071963;28;20095;-63
2022/10/26 14:02:54;;;;;;;20.25;9.23;;;;;;;;;;5091115;28;20128;-63
2022/10/26 14:05:20;;;;;;;19.70;8.80;;;;;;;;;;5088608;28;20067;-66
2022/10/26 14:07:56;;;;;;;17.38;9.00;;;;;;;;;;5090308;28;20071;-66
2022/10/26 14:10:24;;;;;;;20.98;8.60;;;;;;;;;;5089740;28;20059;-62
2022/10/26 14:12:50;;;;;;;19.05;9.10;;;;;;;;;;5087891;28;20057;-64
2022/10/26 14:15:18;;;;;;;19.38;8.73;;;;;;;;;;5089496;28;20059;-66
2022/10/26 14:17:49;;;;;;;20.90;8.57;;;;;;;;;;5090661;28;20181;-67
2022/10/26 14:20:19;;;;;;;17.65;8.68;;;;;;;;;;5089834;28;20055;-66
2022/10/26 14:22:45;;;;;;;16.40;8.52;;;;;;;;;;5083350;28;20050;-65
2022/10/26 14:25:37;;;;;;;17.65;8.93;;;;;;;;;;5087963;28;20048;-66
2022/10/26 14:28:19;;;;;;;17.08;8.20;;;;;;;;;;5086162;28;20068;-67
2022/10/26 14:30:45;;;;;;;21.00;8.70;;;;;;;;;;5083247;28;20055;-63
2022/10/26 14:33:26;;;;;;;19.13;8.25;;;;;;;;;;5082121;28;20060;-65
2022/10/26 14:35:52;;;;;;;18.35;8.35;;;;;;;;;;5078667;28;20123;-65
2022/10/26 14:38:26;;;;;;;18.52;8.23;;;;;;;;;;5072526;28;20048;-64
2022/10/26 14:40:54;;;;;;;17.15;8.43;;;;;;;;;;5085727;28;20056;-64
2022/10/26 14:43:23;;;;;;;17.35;8.13;;;;;;;;;;5065760;28;20079;-64